sensor_id;sensor_type;location;lat;lon;timestamp;pressure;altitude;pressure_sealevel;temperature;humidity
54554;BME280;40450;55.848;-3.572;2023-03-26T00:02:25;98461.31;;;9.54;65.43
54554;BME280;40450;55.848;-3.572;2023-03-26T00:04:55;98457.64;;;9.50;65.36
54554;BME280;40450;55.848;-3.572;2023-03-26T00:07:26;98456.24;;;9.57;64.66
54554;BME280;40450;55.848;-3.572;2023-03-26T00:09:56;98457.33;;;9.11;64.83
54554;BME280;40450;55.848;-3.572;2023-03-26T00:12:27;98456.68;;;9.50;64.36
54554;BME280;40450;55.848;-3.572;2023-03-26T00:15:03;98459.23;;;9.89;64.59
54554;BME280;40450;55.848;-3.572;2023-03-26T00:17:28;98464.39;;;10.17;64.30
54554;BME280;40450;55.848;-3.572;2023-03-26T00:19:58;98464.71;;;10.02;62.68
54554;BME280;40450;55.848;-3.572;2023-03-26T00:22:28;98466.21;;;10.11;63.14
54554;BME280;40450;55.848;-3.572;2023-03-26T00:24:59;98466.95;;;10.08;62.42
54554;BME280;40450;55.848;-3.572;2023-03-26T00:27:29;98464.69;;;10.12;63.17
54554;BME280;40450;55.848;-3.572;2023-03-26T00:30:00;98470.23;;;9.60;63.88
54554;BME280;40450;55.848;-3.572;2023-03-26T00:32:30;98470.32;;;8.85;64.31
54554;BME280;40450;55.848;-3.572;2023-03-26T00:35:00;98467.05;;;9.20;64.09
54554;BME280;40450;55.848;-3.572;2023-03-26T00:37:31;98467.45;;;8.67;64.40
54554;BME280;40450;55.848;-3.572;2023-03-26T00:40:02;98469.64;;;8.86;64.53
54554;BME280;40450;55.848;-3.572;2023-03-26T00:42:32;98476.49;;;5.17;74.86
54554;BME280;40450;55.848;-3.572;2023-03-26T00:45:02;98479.08;;;2.82;81.74
54554;BME280;40450;55.848;-3.572;2023-03-26T00:47:33;98479.05;;;5.16;76.52
54554;BME280;40450;55.848;-3.572;2023-03-26T00:50:03;98479.32;;;6.41;73.65
54554;BME280;40450;55.848;-3.572;2023-03-26T00:52:33;98478.27;;;7.34;71.17
54554;BME280;40450;55.848;-3.572;2023-03-26T00:55:04;98477.21;;;7.28;71.10
54554;BME280;40450;55.848;-3.572;2023-03-26T00:57:34;98474.91;;;7.74;69.58
54554;BME280;40450;55.848;-3.572;2023-03-26T01:00:08;98486.65;;;6.76;71.69
54554;BME280;40450;55.848;-3.572;2023-03-26T01:02:35;98481.39;;;7.79;69.96
54554;BME280;40450;55.848;-3.572;2023-03-26T01:07:36;98488.12;;;8.11;68.81
54554;BME280;40450;55.848;-3.572;2023-03-26T01:10:07;98492.14;;;7.25;70.31
54554;BME280;40450;55.848;-3.572;2023-03-26T01:12:37;98489.84;;;7.78;69.58
54554;BME280;40450;55.848;-3.572;2023-03-26T01:15:08;98491.34;;;8.60;68.55
54554;BME280;40450;55.848;-3.572;2023-03-26T01:17:38;98498.57;;;6.83;72.15
54554;BME280;40450;55.848;-3.572;2023-03-26T01:20:14;98492.93;;;7.46;70.72
54554;BME280;40450;55.848;-3.572;2023-03-26T01:22:44;98493.62;;;7.22;71.52
54554;BME280;40450;55.848;-3.572;2023-03-26T01:25:09;98494.68;;;6.25;73.75
54554;BME280;40450;55.848;-3.572;2023-03-26T01:27:42;98497.30;;;3.87;80.38
54554;BME280;40450;55.848;-3.572;2023-03-26T01:30:16;98496.92;;;3.21;82.54
54554;BME280;40450;55.848;-3.572;2023-03-26T01:32:50;98504.64;;;1.54;86.71
54554;BME280;40450;55.848;-3.572;2023-03-26T01:35:20;98506.30;;;2.08;85.97
54554;BME280;40450;55.848;-3.572;2023-03-26T01:37:48;98496.48;;;4.00;82.43
54554;BME280;40450;55.848;-3.572;2023-03-26T01:40:18;98497.35;;;2.95;84.55
54554;BME280;40450;55.848;-3.572;2023-03-26T01:42:45;98492.96;;;5.24;80.45
54554;BME280;40450;55.848;-3.572;2023-03-26T01:45:15;98493.14;;;5.23;78.27
54554;BME280;40450;55.848;-3.572;2023-03-26T01:47:44;98495.03;;;5.53;78.29
54554;BME280;40450;55.848;-3.572;2023-03-26T01:50:13;98498.14;;;6.58;76.54
54554;BME280;40450;55.848;-3.572;2023-03-26T01:52:44;98495.96;;;5.84;77.10
54554;BME280;40450;55.848;-3.572;2023-03-26T01:55:14;98497.02;;;6.46;76.08
54554;BME280;40450;55.848;-3.572;2023-03-26T01:57:53;98501.22;;;3.86;81.11
54554;BME280;40450;55.848;-3.572;2023-03-26T02:00:21;98499.30;;;6.16;77.73
54554;BME280;40450;55.848;-3.572;2023-03-26T02:02:54;98498.52;;;6.27;77.13
54554;BME280;40450;55.848;-3.572;2023-03-26T02:05:21;98499.24;;;5.75;76.89
54554;BME280;40450;55.848;-3.572;2023-03-26T02:07:50;98498.69;;;5.98;77.10
54554;BME280;40450;55.848;-3.572;2023-03-26T02:10:20;98498.65;;;7.17;73.78
54554;BME280;40450;55.848;-3.572;2023-03-26T02:12:47;98502.14;;;5.13;78.16
54554;BME280;40450;55.848;-3.572;2023-03-26T02:15:18;98500.44;;;5.61;77.23
54554;BME280;40450;55.848;-3.572;2023-03-26T02:17:48;98501.37;;;6.70;75.92
54554;BME280;40450;55.848;-3.572;2023-03-26T02:20:19;98502.40;;;6.72;75.23
54554;BME280;40450;55.848;-3.572;2023-03-26T02:22:48;98502.87;;;7.42;72.26
54554;BME280;40450;55.848;-3.572;2023-03-26T02:25:19;98501.95;;;7.62;71.95
54554;BME280;40450;55.848;-3.572;2023-03-26T02:27:51;98510.28;;;4.40;79.23
54554;BME280;40450;55.848;-3.572;2023-03-26T02:30:24;98509.42;;;4.68;78.79
54554;BME280;40450;55.848;-3.572;2023-03-26T02:32:50;98510.16;;;2.97;82.58
54554;BME280;40450;55.848;-3.572;2023-03-26T02:35:21;98509.85;;;3.33;82.48
54554;BME280;40450;55.848;-3.572;2023-03-26T02:37:50;98513.66;;;4.34;81.14
54554;BME280;40450;55.848;-3.572;2023-03-26T02:40:21;98514.51;;;4.74;79.46
54554;BME280;40450;55.848;-3.572;2023-03-26T02:42:51;98520.05;;;4.23;80.25
54554;BME280;40450;55.848;-3.572;2023-03-26T02:45:22;98527.68;;;0.58;90.35
54554;BME280;40450;55.848;-3.572;2023-03-26T02:47:55;98530.05;;;2.24;86.68
54554;BME280;40450;55.848;-3.572;2023-03-26T02:50:23;98532.02;;;2.17;86.12
54554;BME280;40450;55.848;-3.572;2023-03-26T02:52:53;98537.16;;;0.11;91.30
54554;BME280;40450;55.848;-3.572;2023-03-26T02:55:25;98537.85;;;-0.08;93.48
54554;BME280;40450;55.848;-3.572;2023-03-26T02:57:54;98532.96;;;1.43;89.85
54554;BME280;40450;55.848;-3.572;2023-03-26T03:00:25;98526.99;;;0.65;92.13
54554;BME280;40450;55.848;-3.572;2023-03-26T03:02:57;98527.46;;;0.62;91.55
54554;BME280;40450;55.848;-3.572;2023-03-26T03:05:25;98526.47;;;2.17;89.76
54554;BME280;40450;55.848;-3.572;2023-03-26T03:07:56;98519.04;;;5.17;83.56
54554;BME280;40450;55.848;-3.572;2023-03-26T03:10:27;98517.62;;;6.00;78.03
54554;BME280;40450;55.848;-3.572;2023-03-26T03:12:57;98516.72;;;6.45;78.74
54554;BME280;40450;55.848;-3.572;2023-03-26T03:15:27;98514.00;;;6.43;77.06
54554;BME280;40450;55.848;-3.572;2023-03-26T03:17:57;98513.29;;;6.48;77.76
54554;BME280;40450;55.848;-3.572;2023-03-26T03:20:28;98515.07;;;6.73;75.28
54554;BME280;40450;55.848;-3.572;2023-03-26T03:22:58;98516.08;;;6.77;75.60
54554;BME280;40450;55.848;-3.572;2023-03-26T03:25:28;98518.68;;;6.95;73.40
54554;BME280;40450;55.848;-3.572;2023-03-26T03:27:59;98516.31;;;7.33;71.76
54554;BME280;40450;55.848;-3.572;2023-03-26T03:30:29;98518.41;;;7.29;72.50
54554;BME280;40450;55.848;-3.572;2023-03-26T03:32:59;98518.92;;;7.60;72.72
54554;BME280;40450;55.848;-3.572;2023-03-26T03:35:30;98523.85;;;7.14;70.57
54554;BME280;40450;55.848;-3.572;2023-03-26T03:38:00;98521.32;;;7.38;71.21
54554;BME280;40450;55.848;-3.572;2023-03-26T03:40:31;98520.00;;;8.00;70.30
54554;BME280;40450;55.848;-3.572;2023-03-26T03:43:01;98523.81;;;7.88;69.55
54554;BME280;40450;55.848;-3.572;2023-03-26T03:45:31;98529.76;;;7.88;70.71
54554;BME280;40450;55.848;-3.572;2023-03-26T03:48:02;98545.07;;;3.36;79.46
54554;BME280;40450;55.848;-3.572;2023-03-26T03:50:32;98557.30;;;1.13;86.04
54554;BME280;40450;55.848;-3.572;2023-03-26T03:53:03;98556.36;;;1.22;87.05
54554;BME280;40450;55.848;-3.572;2023-03-26T03:55:33;98558.99;;;1.83;86.37
54554;BME280;40450;55.848;-3.572;2023-03-26T03:58:03;98557.90;;;1.89;86.37
54554;BME280;40450;55.848;-3.572;2023-03-26T04:00:36;98554.79;;;3.34;83.36
54554;BME280;40450;55.848;-3.572;2023-03-26T04:03:04;98565.82;;;1.89;86.76
54554;BME280;40450;55.848;-3.572;2023-03-26T04:05:34;98559.61;;;2.80;84.88
54554;BME280;40450;55.848;-3.572;2023-03-26T04:08:05;98558.37;;;3.41;82.76
54554;BME280;40450;55.848;-3.572;2023-03-26T04:10:35;98558.17;;;3.18;83.30
54554;BME280;40450;55.848;-3.572;2023-03-26T04:13:06;98570.33;;;2.52;84.55
54554;BME280;40450;55.848;-3.572;2023-03-26T04:15:36;98563.75;;;4.65;81.87
54554;BME280;40450;55.848;-3.572;2023-03-26T04:18:07;98564.87;;;3.87;82.56
54554;BME280;40450;55.848;-3.572;2023-03-26T04:20:38;98564.59;;;4.32;80.31
54554;BME280;40450;55.848;-3.572;2023-03-26T04:23:07;98564.29;;;5.13;79.12
54554;BME280;40450;55.848;-3.572;2023-03-26T04:25:38;98561.29;;;6.11;75.78
54554;BME280;40450;55.848;-3.572;2023-03-26T04:28:08;98559.33;;;6.12;78.00
54554;BME280;40450;55.848;-3.572;2023-03-26T04:30:39;98561.48;;;4.51;79.30
54554;BME280;40450;55.848;-3.572;2023-03-26T04:33:10;98557.73;;;6.40;76.15
54554;BME280;40450;55.848;-3.572;2023-03-26T04:35:40;98558.08;;;7.21;73.41
54554;BME280;40450;55.848;-3.572;2023-03-26T04:38:10;98553.52;;;7.39;74.23
54554;BME280;40450;55.848;-3.572;2023-03-26T04:40:40;98550.84;;;8.21;72.49
54554;BME280;40450;55.848;-3.572;2023-03-26T04:43:12;98563.59;;;6.83;73.89
54554;BME280;40450;55.848;-3.572;2023-03-26T04:45:41;98565.17;;;7.53;72.83
54554;BME280;40450;55.848;-3.572;2023-03-26T04:48:12;98568.17;;;7.26;71.62
54554;BME280;40450;55.848;-3.572;2023-03-26T04:50:43;98567.62;;;7.66;72.69
54554;BME280;40450;55.848;-3.572;2023-03-26T04:53:15;98562.38;;;8.48;69.76
54554;BME280;40450;55.848;-3.572;2023-03-26T04:55:48;98564.01;;;8.95;69.53
54554;BME280;40450;55.848;-3.572;2023-03-26T04:58:14;98568.35;;;9.27;69.88
54554;BME280;40450;55.848;-3.572;2023-03-26T05:00:44;98572.46;;;9.42;67.58
54554;BME280;40450;55.848;-3.572;2023-03-26T05:03:14;98575.78;;;9.72;67.18
54554;BME280;40450;55.848;-3.572;2023-03-26T05:05:45;98575.42;;;9.89;66.31
54554;BME280;40450;55.848;-3.572;2023-03-26T05:08:15;98577.25;;;9.78;64.51
54554;BME280;40450;55.848;-3.572;2023-03-26T05:10:45;98579.66;;;9.75;65.22
54554;BME280;40450;55.848;-3.572;2023-03-26T05:13:16;98578.67;;;9.74;64.80
54554;BME280;40450;55.848;-3.572;2023-03-26T05:15:46;98581.91;;;9.72;64.72
54554;BME280;40450;55.848;-3.572;2023-03-26T05:18:17;98584.66;;;9.86;63.98
54554;BME280;40450;55.848;-3.572;2023-03-26T05:20:47;98584.64;;;9.93;64.01
54554;BME280;40450;55.848;-3.572;2023-03-26T05:23:17;98589.66;;;9.96;63.53
54554;BME280;40450;55.848;-3.572;2023-03-26T05:25:48;98592.20;;;9.92;64.15
54554;BME280;40450;55.848;-3.572;2023-03-26T05:28:19;98590.79;;;10.02;63.15
54554;BME280;40450;55.848;-3.572;2023-03-26T05:30:49;98595.49;;;10.06;62.28
54554;BME280;40450;55.848;-3.572;2023-03-26T05:33:21;98596.86;;;10.03;62.06
54554;BME280;40450;55.848;-3.572;2023-03-26T05:35:58;98600.76;;;9.95;61.76
54554;BME280;40450;55.848;-3.572;2023-03-26T05:38:20;98606.04;;;9.30;63.01
54554;BME280;40450;55.848;-3.572;2023-03-26T05:40:51;98611.81;;;8.95;63.19
54554;BME280;40450;55.848;-3.572;2023-03-26T05:43:21;98620.64;;;8.08;64.10
54554;BME280;40450;55.848;-3.572;2023-03-26T05:45:51;98627.38;;;4.85;74.68
54554;BME280;40450;55.848;-3.572;2023-03-26T05:48:23;98630.19;;;4.83;72.95
54554;BME280;40450;55.848;-3.572;2023-03-26T05:50:54;98641.95;;;2.85;81.61
54554;BME280;40450;55.848;-3.572;2023-03-26T05:53:24;98639.05;;;4.07;78.59
54554;BME280;40450;55.848;-3.572;2023-03-26T05:55:54;98639.30;;;4.26;77.86
54554;BME280;40450;55.848;-3.572;2023-03-26T05:58:24;98642.51;;;4.02;78.47
54554;BME280;40450;55.848;-3.572;2023-03-26T06:00:56;98646.87;;;5.03;75.86
54554;BME280;40450;55.848;-3.572;2023-03-26T06:03:25;98652.26;;;4.80;76.20
54554;BME280;40450;55.848;-3.572;2023-03-26T06:05:55;98660.46;;;3.76;79.07
54554;BME280;40450;55.848;-3.572;2023-03-26T06:08:26;98661.71;;;4.18;78.55
54554;BME280;40450;55.848;-3.572;2023-03-26T06:11:01;98665.29;;;4.48;77.77
54554;BME280;40450;55.848;-3.572;2023-03-26T06:13:26;98671.62;;;5.30;76.64
54554;BME280;40450;55.848;-3.572;2023-03-26T06:15:56;98674.43;;;5.54;75.55
54554;BME280;40450;55.848;-3.572;2023-03-26T06:18:27;98681.51;;;4.67;76.38
54554;BME280;40450;55.848;-3.572;2023-03-26T06:20:58;98692.95;;;3.64;78.98
54554;BME280;40450;55.848;-3.572;2023-03-26T06:23:28;98695.03;;;4.30;77.98
54554;BME280;40450;55.848;-3.572;2023-03-26T06:25:59;98697.29;;;5.30;76.84
54554;BME280;40450;55.848;-3.572;2023-03-26T06:28:29;98700.35;;;5.31;76.91
54554;BME280;40450;55.848;-3.572;2023-03-26T06:31:00;98704.34;;;5.17;76.23
54554;BME280;40450;55.848;-3.572;2023-03-26T06:33:30;98717.84;;;3.17;81.47
54554;BME280;40450;55.848;-3.572;2023-03-26T06:36:00;98722.32;;;1.24;87.11
54554;BME280;40450;55.848;-3.572;2023-03-26T06:38:31;98725.81;;;1.08;88.15
54554;BME280;40450;55.848;-3.572;2023-03-26T06:41:02;98730.76;;;-0.04;89.99
54554;BME280;40450;55.848;-3.572;2023-03-26T06:43:32;98737.70;;;1.20;88.04
54554;BME280;40450;55.848;-3.572;2023-03-26T06:46:03;98745.48;;;0.16;90.38
54554;BME280;40450;55.848;-3.572;2023-03-26T06:48:32;98745.96;;;1.92;87.20
54554;BME280;40450;55.848;-3.572;2023-03-26T06:51:03;98753.51;;;2.94;85.72
54554;BME280;40450;55.848;-3.572;2023-03-26T06:53:33;98755.82;;;2.89;85.57
54554;BME280;40450;55.848;-3.572;2023-03-26T06:56:04;98758.11;;;2.37;86.47
54554;BME280;40450;55.848;-3.572;2023-03-26T06:58:34;98763.88;;;2.36;86.97
54554;BME280;40450;55.848;-3.572;2023-03-26T07:01:05;98768.23;;;0.79;89.26
54554;BME280;40450;55.848;-3.572;2023-03-26T07:03:35;98768.90;;;1.19;90.51
54554;BME280;40450;55.848;-3.572;2023-03-26T07:06:06;98772.71;;;0.65;91.03
54554;BME280;40450;55.848;-3.572;2023-03-26T07:08:36;98773.70;;;1.52;89.00
54554;BME280;40450;55.848;-3.572;2023-03-26T07:11:06;98776.40;;;2.98;87.06
54554;BME280;40450;55.848;-3.572;2023-03-26T07:13:37;98777.48;;;2.91;85.30
54554;BME280;40450;55.848;-3.572;2023-03-26T07:16:08;98781.09;;;1.43;89.56
54554;BME280;40450;55.848;-3.572;2023-03-26T07:18:38;98788.91;;;1.85;87.57
54554;BME280;40450;55.848;-3.572;2023-03-26T07:21:09;98790.27;;;3.40;86.22
54554;BME280;40450;55.848;-3.572;2023-03-26T07:23:39;98792.95;;;2.48;86.47
54554;BME280;40450;55.848;-3.572;2023-03-26T07:26:21;98797.55;;;3.76;83.64
54554;BME280;40450;55.848;-3.572;2023-03-26T07:28:43;98803.80;;;0.65;89.01
54554;BME280;40450;55.848;-3.572;2023-03-26T07:31:21;98819.49;;;-1.85;94.30
54554;BME280;40450;55.848;-3.572;2023-03-26T07:33:46;98822.89;;;-1.98;95.19
54554;BME280;40450;55.848;-3.572;2023-03-26T07:36:19;98822.78;;;-1.11;93.53
54554;BME280;40450;55.848;-3.572;2023-03-26T07:38:58;98825.17;;;-1.21;94.03
54554;BME280;40450;55.848;-3.572;2023-03-26T07:41:15;98834.59;;;-1.88;95.03
54554;BME280;40450;55.848;-3.572;2023-03-26T07:43:54;98830.89;;;-0.92;94.47
54554;BME280;40450;55.848;-3.572;2023-03-26T07:46:13;98834.19;;;-0.57;92.11
54554;BME280;40450;55.848;-3.572;2023-03-26T07:48:44;98841.12;;;-1.02;94.70
54554;BME280;40450;55.848;-3.572;2023-03-26T07:51:15;98838.01;;;-0.19;92.15
54554;BME280;40450;55.848;-3.572;2023-03-26T07:53:44;98843.80;;;0.30;91.09
54554;BME280;40450;55.848;-3.572;2023-03-26T07:56:16;98854.73;;;-1.56;93.46
54554;BME280;40450;55.848;-3.572;2023-03-26T07:58:55;98858.69;;;-1.81;94.68
54554;BME280;40450;55.848;-3.572;2023-03-26T08:01:20;98864.74;;;-1.63;93.82
54554;BME280;40450;55.848;-3.572;2023-03-26T08:03:55;98866.39;;;-1.56;94.23
54554;BME280;40450;55.848;-3.572;2023-03-26T08:06:22;98873.36;;;-1.33;93.54
54554;BME280;40450;55.848;-3.572;2023-03-26T08:08:52;98875.50;;;-2.54;95.48
54554;BME280;40450;55.848;-3.572;2023-03-26T08:11:28;98881.45;;;-1.04;94.20
54554;BME280;40450;55.848;-3.572;2023-03-26T08:13:56;98884.98;;;-0.57;93.49
54554;BME280;40450;55.848;-3.572;2023-03-26T08:16:21;98887.14;;;0.60;90.47
54554;BME280;40450;55.848;-3.572;2023-03-26T08:18:53;98896.64;;;-1.54;93.97
54554;BME280;40450;55.848;-3.572;2023-03-26T08:21:25;98901.94;;;-0.71;92.50
54554;BME280;40450;55.848;-3.572;2023-03-26T08:23:57;98908.45;;;-2.11;94.96
54554;BME280;40450;55.848;-3.572;2023-03-26T08:26:26;98908.44;;;-1.76;93.86
54554;BME280;40450;55.848;-3.572;2023-03-26T08:29:01;98914.44;;;-0.99;92.31
54554;BME280;40450;55.848;-3.572;2023-03-26T08:31:29;98913.54;;;-0.43;90.82
54554;BME280;40450;55.848;-3.572;2023-03-26T08:33:51;98920.84;;;-1.12;93.14
54554;BME280;40450;55.848;-3.572;2023-03-26T08:36:21;98918.56;;;-2.19;96.07
54554;BME280;40450;55.848;-3.572;2023-03-26T08:38:52;98921.71;;;-0.08;92.91
54554;BME280;40450;55.848;-3.572;2023-03-26T08:46:37;98933.61;;;-2.60;95.94
54554;BME280;40450;55.848;-3.572;2023-03-26T08:49:07;98939.70;;;-2.70;96.66
54554;BME280;40450;55.848;-3.572;2023-03-26T08:56:30;98947.90;;;-0.96;92.58
54554;BME280;40450;55.848;-3.572;2023-03-26T09:04:13;98958.36;;;-1.60;92.67
54554;BME280;40450;55.848;-3.572;2023-03-26T09:26:41;98998.09;;;-2.77;94.71
54554;BME280;40450;55.848;-3.572;2023-03-26T09:36:40;99004.11;;;-1.56;92.63
54554;BME280;40450;55.848;-3.572;2023-03-26T09:39:11;99018.39;;;-2.06;93.78
54554;BME280;40450;55.848;-3.572;2023-03-26T09:41:40;99020.22;;;-1.36;92.64
54554;BME280;40450;55.848;-3.572;2023-03-26T09:44:14;99021.93;;;-2.00;92.63
54554;BME280;40450;55.848;-3.572;2023-03-26T09:46:40;99025.10;;;-1.45;90.79
54554;BME280;40450;55.848;-3.572;2023-03-26T09:49:14;99026.01;;;-1.95;91.10
54554;BME280;40450;55.848;-3.572;2023-03-26T09:51:50;99025.19;;;-1.49;91.27
54554;BME280;40450;55.848;-3.572;2023-03-26T09:54:31;99032.32;;;-0.35;89.16
54554;BME280;40450;55.848;-3.572;2023-03-26T09:56:45;99040.35;;;-0.15;87.91
54554;BME280;40450;55.848;-3.572;2023-03-26T09:59:15;99042.11;;;2.51;83.13
54554;BME280;40450;55.848;-3.572;2023-03-26T10:01:41;99050.56;;;-1.12;87.59
54554;BME280;40450;55.848;-3.572;2023-03-26T10:06:47;99059.77;;;-0.02;87.72
54554;BME280;40450;55.848;-3.572;2023-03-26T10:09:20;99066.54;;;-0.01;88.17
54554;BME280;40450;55.848;-3.572;2023-03-26T10:11:54;99058.00;;;2.35;84.80
54554;BME280;40450;55.848;-3.572;2023-03-26T10:14:17;99071.24;;;0.56;85.57
54554;BME280;40450;55.848;-3.572;2023-03-26T10:16:49;99065.16;;;2.35;82.93
54554;BME280;40450;55.848;-3.572;2023-03-26T10:19:20;99074.94;;;0.42;86.00
54554;BME280;40450;55.848;-3.572;2023-03-26T10:21:46;99072.30;;;1.90;82.59
54554;BME280;40450;55.848;-3.572;2023-03-26T10:24:19;99075.00;;;3.23;81.77
54554;BME280;40450;55.848;-3.572;2023-03-26T10:26:53;99076.48;;;4.00;78.01
54554;BME280;40450;55.848;-3.572;2023-03-26T10:29:25;99092.98;;;0.91;82.03
54554;BME280;40450;55.848;-3.572;2023-03-26T10:31:45;99099.96;;;0.37;83.39
54554;BME280;40450;55.848;-3.572;2023-03-26T10:34:25;99098.57;;;1.56;82.40
54554;BME280;40450;55.848;-3.572;2023-03-26T10:36:49;99108.79;;;0.37;84.15
54554;BME280;40450;55.848;-3.572;2023-03-26T10:39:27;99103.43;;;2.76;80.53
54554;BME280;40450;55.848;-3.572;2023-03-26T10:41:50;99114.34;;;0.89;83.25
54554;BME280;40450;55.848;-3.572;2023-03-26T10:44:30;99118.76;;;1.72;81.55
54554;BME280;40450;55.848;-3.572;2023-03-26T10:46:55;99115.91;;;3.02;78.90
54554;BME280;40450;55.848;-3.572;2023-03-26T10:49:31;99128.89;;;0.75;83.34
54554;BME280;40450;55.848;-3.572;2023-03-26T10:51:46;99127.63;;;1.91;79.00
54554;BME280;40450;55.848;-3.572;2023-03-26T10:54:23;99130.88;;;-0.30;84.08
54554;BME280;40450;55.848;-3.572;2023-03-26T10:56:47;99128.77;;;3.19;81.83
54554;BME280;40450;55.848;-3.572;2023-03-26T10:59:17;99133.62;;;3.01;78.65
54554;BME280;40450;55.848;-3.572;2023-03-26T11:01:53;99133.46;;;4.37;77.29
54554;BME280;40450;55.848;-3.572;2023-03-26T11:04:25;99137.84;;;3.88;74.92
54554;BME280;40450;55.848;-3.572;2023-03-26T11:06:53;99141.82;;;2.64;78.62
54554;BME280;40450;55.848;-3.572;2023-03-26T11:09:27;99155.66;;;1.84;79.22
54554;BME280;40450;55.848;-3.572;2023-03-26T11:11:53;99165.02;;;0.67;81.01
54554;BME280;40450;55.848;-3.572;2023-03-26T11:14:22;99172.31;;;0.69;82.29
54554;BME280;40450;55.848;-3.572;2023-03-26T11:16:56;99178.11;;;0.45;81.97
54554;BME280;40450;55.848;-3.572;2023-03-26T11:19:23;99186.63;;;-1.13;83.51
54554;BME280;40450;55.848;-3.572;2023-03-26T11:21:54;99192.77;;;-0.26;82.98
54554;BME280;40450;55.848;-3.572;2023-03-26T11:24:37;99199.20;;;-1.01;81.63
54554;BME280;40450;55.848;-3.572;2023-03-26T11:26:53;99201.24;;;-1.17;82.52
54554;BME280;40450;55.848;-3.572;2023-03-26T11:29:30;99204.30;;;-0.12;80.96
54554;BME280;40450;55.848;-3.572;2023-03-26T11:32:02;99208.59;;;0.21;79.99
54554;BME280;40450;55.848;-3.572;2023-03-26T11:34:26;99218.79;;;-2.13;83.98
54554;BME280;40450;55.848;-3.572;2023-03-26T11:36:53;99222.58;;;-1.70;84.68
54554;BME280;40450;55.848;-3.572;2023-03-26T11:39:25;99228.34;;;-1.92;87.95
54554;BME280;40450;55.848;-3.572;2023-03-26T11:42:00;99232.18;;;-1.52;86.93
54554;BME280;40450;55.848;-3.572;2023-03-26T11:44:26;99234.83;;;1.27;81.06
54554;BME280;40450;55.848;-3.572;2023-03-26T11:46:57;99238.38;;;-0.27;83.63
54554;BME280;40450;55.848;-3.572;2023-03-26T11:49:25;99241.99;;;-0.72;86.11
54554;BME280;40450;55.848;-3.572;2023-03-26T11:51:55;99242.47;;;0.46;84.21
54554;BME280;40450;55.848;-3.572;2023-03-26T11:54:25;99249.18;;;-0.03;84.22
54554;BME280;40450;55.848;-3.572;2023-03-26T11:56:58;99249.98;;;-0.18;86.16
54554;BME280;40450;55.848;-3.572;2023-03-26T11:59:28;99254.57;;;-0.60;86.61
54554;BME280;40450;55.848;-3.572;2023-03-26T12:01:57;99258.79;;;2.09;81.26
54554;BME280;40450;55.848;-3.572;2023-03-26T12:04:32;99261.81;;;1.79;81.62
54554;BME280;40450;55.848;-3.572;2023-03-26T12:07:05;99255.36;;;4.96;77.63
54554;BME280;40450;55.848;-3.572;2023-03-26T12:09:27;99248.81;;;7.10;74.04
54554;BME280;40450;55.848;-3.572;2023-03-26T12:11:59;99252.58;;;4.19;76.41
54554;BME280;40450;55.848;-3.572;2023-03-26T12:14:32;99267.32;;;1.52;81.54
54554;BME280;40450;55.848;-3.572;2023-03-26T12:17:01;99270.85;;;1.12;82.58
54554;BME280;40450;55.848;-3.572;2023-03-26T12:19:35;99277.53;;;0.78;84.41
54554;BME280;40450;55.848;-3.572;2023-03-26T12:21:59;99288.69;;;-0.24;84.78
54554;BME280;40450;55.848;-3.572;2023-03-26T12:24:32;99297.34;;;-0.50;86.50
54554;BME280;40450;55.848;-3.572;2023-03-26T12:27:18;99301.77;;;-0.41;86.87
54554;BME280;40450;55.848;-3.572;2023-03-26T12:29:31;99303.63;;;2.51;82.47
54554;BME280;40450;55.848;-3.572;2023-03-26T12:32:05;99298.81;;;0.91;83.58
54554;BME280;40450;55.848;-3.572;2023-03-26T12:34:33;99303.85;;;0.16;87.27
54554;BME280;40450;55.848;-3.572;2023-03-26T12:37:03;99306.62;;;1.28;83.68
54554;BME280;40450;55.848;-3.572;2023-03-26T12:39:35;99310.98;;;1.81;82.13
54554;BME280;40450;55.848;-3.572;2023-03-26T12:44:34;99314.71;;;1.68;82.98
54554;BME280;40450;55.848;-3.572;2023-03-26T12:47:09;99322.70;;;-0.20;86.78
54554;BME280;40450;55.848;-3.572;2023-03-26T12:49:34;99332.48;;;2.34;82.79
54554;BME280;40450;55.848;-3.572;2023-03-26T12:52:16;99326.34;;;3.95;80.46
54554;BME280;40450;55.848;-3.572;2023-03-26T12:54:40;99329.43;;;3.99;81.08
54554;BME280;40450;55.848;-3.572;2023-03-26T12:57:17;99324.18;;;5.72;75.57
54554;BME280;40450;55.848;-3.572;2023-03-26T12:59:54;99322.22;;;4.75;74.72
54554;BME280;40450;55.848;-3.572;2023-03-26T13:02:22;99319.82;;;6.48;71.80
54554;BME280;40450;55.848;-3.572;2023-03-26T13:04:50;99323.69;;;6.90;69.12
54554;BME280;40450;55.848;-3.572;2023-03-26T13:07:14;99323.02;;;6.42;70.24
54554;BME280;40450;55.848;-3.572;2023-03-26T13:09:48;99328.07;;;7.31;70.03
54554;BME280;40450;55.848;-3.572;2023-03-26T13:12:15;99320.80;;;9.53;68.17
54554;BME280;40450;55.848;-3.572;2023-03-26T13:14:47;99325.58;;;9.75;64.37
54554;BME280;40450;55.848;-3.572;2023-03-26T13:17:16;99336.44;;;6.84;69.17
54554;BME280;40450;55.848;-3.572;2023-03-26T13:19:44;99342.26;;;7.46;64.01
54554;BME280;40450;55.848;-3.572;2023-03-26T13:22:16;99342.64;;;6.85;62.59
54554;BME280;40450;55.848;-3.572;2023-03-26T13:24:48;99349.51;;;5.53;66.40
54554;BME280;40450;55.848;-3.572;2023-03-26T13:27:21;99351.79;;;4.93;68.35
54554;BME280;40450;55.848;-3.572;2023-03-26T13:29:46;99357.29;;;1.53;75.89
54554;BME280;40450;55.848;-3.572;2023-03-26T13:32:17;99359.41;;;4.32;70.96
54554;BME280;40450;55.848;-3.572;2023-03-26T13:34:55;99363.00;;;2.78;72.63
54554;BME280;40450;55.848;-3.572;2023-03-26T13:37:15;99356.63;;;5.32;67.92
54554;BME280;40450;55.848;-3.572;2023-03-26T13:39:52;99358.86;;;5.01;67.06
54554;BME280;40450;55.848;-3.572;2023-03-26T13:42:23;99370.84;;;3.56;69.65
54554;BME280;40450;55.848;-3.572;2023-03-26T13:44:52;99377.42;;;2.24;72.72
54554;BME280;40450;55.848;-3.572;2023-03-26T13:47:16;99375.26;;;3.56;69.72
54554;BME280;40450;55.848;-3.572;2023-03-26T13:49:48;99375.78;;;1.00;75.16
54554;BME280;40450;55.848;-3.572;2023-03-26T13:52:20;99376.92;;;1.70;74.60
54554;BME280;40450;55.848;-3.572;2023-03-26T13:54:48;99387.03;;;0.53;76.95
54554;BME280;40450;55.848;-3.572;2023-03-26T13:57:22;99390.58;;;0.32;77.87
54554;BME280;40450;55.848;-3.572;2023-03-26T13:59:49;99391.76;;;0.56;77.39
54554;BME280;40450;55.848;-3.572;2023-03-26T14:02:22;99385.37;;;1.89;75.55
54554;BME280;40450;55.848;-3.572;2023-03-26T14:04:50;99386.72;;;2.59;72.60